createdAt,value
2017-04-18T00:00:06.836Z,62.13
2017-04-18T00:00:47.412Z,62.52
2017-04-18T00:01:27.966Z,62.42
2017-04-18T00:02:08.642Z,62.32
2017-04-18T00:02:49.228Z,61.75
2017-04-18T00:03:29.811Z,61.84
2017-04-18T00:04:10.400Z,61.78
2017-04-18T00:04:50.985Z,62.13
2017-04-18T00:05:31.573Z,61.97
2017-04-18T00:06:12.141Z,61.87
2017-04-18T00:06:52.722Z,61.97
2017-04-18T00:07:33.306Z,61.78
2017-04-18T00:08:13.879Z,62.16
2017-04-18T00:08:54.456Z,62.16
2017-04-18T00:09:35.025Z,61.58
2017-04-18T00:10:15.607Z,61.49
2017-04-18T00:10:56.177Z,61.75
2017-04-18T00:11:36.754Z,61.49
2017-04-18T00:12:17.350Z,61.49
2017-04-18T00:12:57.938Z,61.46
2017-04-18T00:13:38.516Z,61.97
2017-04-18T00:14:19.095Z,61.78
2017-04-18T00:14:59.688Z,61.87
2017-04-18T00:15:40.274Z,62.07
2017-04-18T00:16:20.858Z,61.49
2017-04-18T00:17:01.441Z,61.49
2017-04-18T00:17:42.012Z,61.49
2017-04-18T00:18:22.593Z,61.58
2017-04-18T00:19:03.167Z,62.16
2017-04-18T00:19:43.751Z,61.68
2017-04-18T00:20:24.336Z,61.58
2017-04-18T00:22:11.852Z,62.16
2017-04-18T00:22:52.434Z,62.16
2017-04-18T00:23:33.024Z,62.07
2017-04-18T00:24:13.605Z,61.78
2017-04-18T00:24:54.180Z,62.07
2017-04-18T00:25:34.770Z,62.16
2017-04-18T00:26:15.348Z,61.87
2017-04-18T00:26:55.928Z,62.07
2017-04-18T00:27:36.496Z,61.87
2017-04-18T00:28:17.076Z,61.87
2017-04-18T00:28:57.654Z,62.16
2017-04-18T00:29:38.241Z,61.78
2017-04-18T00:30:18.818Z,61.58
2017-04-18T00:30:59.392Z,61.68
2017-04-18T00:31:39.978Z,61.68
2017-04-18T00:32:20.562Z,61.58
2017-04-18T00:33:01.144Z,61.65
2017-04-18T00:33:41.718Z,61.58
2017-04-18T00:34:22.300Z,61.58
2017-04-18T00:35:02.868Z,61.3
2017-04-18T00:35:43.454Z,61.2
2017-04-18T00:36:24.035Z,61.3
2017-04-18T00:37:04.615Z,61.3
2017-04-18T00:37:45.201Z,61.3
2017-04-18T00:38:25.769Z,61.3
2017-04-18T00:39:06.349Z,61.49
2017-04-18T00:39:46.920Z,61.4
2017-04-18T00:40:27.505Z,61.4
2017-04-18T00:41:08.085Z,61.46
2017-04-18T00:41:48.667Z,61.75
2017-04-18T00:42:29.246Z,61.94
2017-04-18T00:43:09.832Z,61.97
2017-04-18T00:43:50.406Z,62.16
2017-04-18T00:44:32.516Z,61.87
2017-04-18T00:45:11.963Z,61.78
2017-04-18T00:45:52.547Z,61.87
2017-04-18T00:46:33.134Z,62.13
2017-04-18T00:47:13.713Z,61.97
2017-04-18T00:47:54.290Z,62.04
2017-04-18T00:48:34.875Z,61.97
2017-04-18T00:49:15.452Z,61.87
2017-04-18T00:49:56.041Z,61.87
2017-04-18T00:50:36.607Z,61.87
2017-04-18T00:51:17.193Z,62.07
2017-04-18T00:51:57.767Z,61.68
2017-04-18T00:52:38.349Z,61.58
2017-04-18T00:54:25.851Z,61.58
2017-04-18T00:55:06.430Z,61.3
2017-04-18T00:55:47.005Z,61.49
2017-04-18T00:56:27.599Z,61.49
2017-04-18T00:57:08.176Z,61.49
2017-04-18T00:57:48.762Z,61.36
2017-04-18T00:58:29.326Z,61.58
2017-04-18T00:59:09.908Z,61.49
2017-04-18T00:59:50.486Z,61.68
2017-04-18T01:00:31.067Z,61.58
2017-04-18T01:01:11.649Z,61.68
2017-04-18T01:01:52.229Z,61.49
2017-04-18T01:02:32.816Z,61.68
2017-04-18T01:03:13.397Z,61.49
2017-04-18T01:03:53.986Z,61.68
2017-04-18T01:04:34.574Z,61.78
2017-04-18T01:05:15.152Z,61.78
2017-04-18T01:05:55.736Z,61.78
2017-04-18T01:06:36.317Z,61.58
2017-04-18T01:07:16.895Z,61.68
2017-04-18T01:07:57.477Z,61.68
2017-04-18T01:08:38.057Z,61.68
2017-04-18T01:09:18.639Z,61.49
2017-04-18T01:09:59.220Z,61.87
2017-04-18T01:10:39.796Z,61.49
2017-04-18T01:11:20.363Z,61.49
2017-04-18T01:12:00.946Z,61.4
2017-04-18T01:12:41.526Z,61.3
2017-04-18T01:13:36.856Z,61.49
2017-04-18T01:14:17.447Z,61.58
2017-04-18T01:14:58.018Z,61.49
2017-04-18T01:16:55.726Z,61.49
2017-04-18T01:17:36.305Z,61.4
2017-04-18T01:18:16.886Z,61.49
2017-04-18T01:18:57.462Z,61.49
2017-04-18T01:19:38.063Z,61.58
2017-04-18T01:20:18.621Z,61.58
2017-04-18T01:21:00.010Z,61.58
2017-04-18T01:21:40.594Z,61.58
2017-04-18T01:22:21.171Z,61.68
2017-04-18T01:23:01.752Z,61.49
2017-04-18T01:23:42.339Z,61.68
2017-04-18T01:24:22.921Z,61.49
2017-04-18T01:25:03.503Z,61.58
2017-04-18T01:25:44.077Z,61.68
2017-04-18T01:26:24.661Z,61.58
2017-04-18T01:27:05.231Z,61.58
2017-04-18T01:27:45.799Z,61.49
2017-04-18T01:28:26.376Z,61.3
2017-04-18T01:29:07.002Z,61.4
2017-04-18T01:29:47.577Z,61.49
2017-04-18T01:32:06.108Z,61.4
2017-04-18T01:32:46.692Z,61.58
2017-04-18T01:33:27.266Z,61.55
2017-04-18T01:34:07.839Z,61.4
2017-04-18T01:34:48.417Z,61.4
2017-04-18T01:35:29.005Z,61.3
2017-04-18T01:36:09.592Z,61.49
2017-04-18T01:36:50.164Z,61.4
2017-04-18T01:37:30.740Z,61.01
2017-04-18T01:38:11.316Z,61.01
2017-04-18T01:38:51.896Z,61.49
2017-04-18T01:39:33.295Z,61.01
2017-04-18T01:40:13.872Z,61.2
2017-04-18T01:40:54.453Z,61.01
2017-04-18T01:41:35.035Z,61.01
2017-04-18T01:42:15.609Z,61.01
2017-04-18T01:42:56.193Z,61.01
2017-04-18T01:43:36.787Z,61.01
2017-04-18T01:44:17.371Z,61.3
2017-04-18T01:44:57.959Z,61.2
2017-04-18T01:45:38.517Z,61.01
2017-04-18T01:46:19.103Z,61.01
2017-04-18T01:46:59.683Z,61.3
2017-04-18T01:47:40.270Z,61.4
2017-04-18T01:48:20.847Z,61.68
2017-04-18T01:49:01.427Z,61.68
2017-04-18T01:49:44.613Z,61.58
2017-04-18T01:50:25.194Z,61.4
2017-04-18T01:51:05.778Z,61.68
2017-04-18T01:51:46.358Z,61.49
2017-04-18T01:52:26.936Z,61.4
2017-04-18T01:53:07.517Z,61.49
2017-04-18T01:53:48.100Z,61.4
2017-04-18T01:54:28.676Z,61.58
2017-04-18T01:55:09.264Z,61.49
2017-04-18T01:55:49.847Z,61.49
2017-04-18T01:56:30.433Z,61.2
2017-04-18T01:57:11.011Z,61.01
2017-04-18T01:57:51.595Z,61.01
2017-04-18T01:58:32.175Z,61.3
2017-04-18T01:59:14.201Z,61.3
2017-04-18T01:59:56.202Z,61.3
2017-04-18T02:00:36.346Z,61.2
2017-04-18T02:01:16.916Z,61.4
2017-04-18T02:01:57.493Z,61.11
2017-04-18T02:02:38.078Z,61.11
2017-04-18T02:03:18.664Z,61.01
2017-04-18T02:03:59.230Z,61.11
2017-04-18T02:04:39.826Z,61.11
2017-04-18T02:05:20.405Z,60.91
2017-04-18T02:06:00.968Z,61.11
2017-04-18T02:06:41.554Z,61.2
2017-04-18T02:07:22.125Z,61.11
2017-04-18T02:08:02.692Z,60.91
2017-04-18T02:08:43.274Z,61.01
2017-04-18T02:09:23.849Z,61.01
2017-04-18T02:10:04.437Z,60.82
2017-04-18T02:10:59.693Z,61.01
2017-04-18T02:11:40.272Z,61.01
2017-04-18T02:12:20.859Z,60.91
2017-04-18T02:13:01.436Z,60.91
2017-04-18T02:13:42.023Z,60.91
2017-04-18T02:14:22.607Z,60.91
2017-04-18T02:15:03.186Z,60.91
2017-04-18T02:15:43.769Z,60.63
2017-04-18T02:16:24.353Z,61.01
2017-04-18T02:17:04.932Z,61.01
2017-04-18T02:17:45.514Z,61.11
2017-04-18T02:18:26.100Z,60.72
2017-04-18T02:19:06.683Z,60.82
2017-04-18T02:19:47.266Z,61.01
2017-04-18T02:20:27.847Z,60.82
2017-04-18T02:21:08.438Z,60.91
2017-04-18T02:21:49.021Z,60.91
2017-04-18T02:22:29.601Z,60.91
2017-04-18T02:23:10.187Z,60.91
2017-04-18T02:23:50.771Z,60.91
2017-04-18T02:24:31.350Z,60.91
2017-04-18T02:25:11.933Z,61.11
2017-04-18T02:25:52.515Z,61.01
2017-04-18T02:26:33.099Z,60.91
2017-04-18T02:27:13.682Z,61.3
2017-04-18T02:27:54.270Z,61.68
2017-04-18T02:28:34.845Z,61.49
2017-04-18T02:29:15.424Z,61.01
2017-04-18T02:29:56.011Z,61.2
2017-04-18T02:30:36.585Z,61.4
2017-04-18T02:31:17.161Z,61.3
2017-04-18T02:31:57.747Z,61.3
2017-04-18T02:32:38.324Z,61.3
2017-04-18T02:33:18.917Z,61.3
2017-04-18T02:33:59.488Z,61.3
2017-04-18T02:34:40.079Z,61.3
2017-04-18T02:35:20.661Z,61.3
2017-04-18T02:36:01.246Z,61.3
2017-04-18T02:36:41.826Z,61.01
2017-04-18T02:37:22.409Z,61.3
2017-04-18T02:38:02.985Z,61.4
2017-04-18T02:38:43.567Z,61.2
2017-04-18T02:39:24.152Z,61.2
2017-04-18T02:40:04.729Z,61.4
2017-04-18T02:40:45.313Z,61.49
2017-04-18T02:41:25.910Z,61.58
2017-04-18T02:42:06.493Z,61.4
2017-04-18T02:42:47.070Z,61.49
2017-04-18T02:43:27.656Z,61.4
2017-04-18T02:44:08.234Z,61.49
2017-04-18T02:44:49.720Z,61.58
2017-04-18T02:45:29.949Z,61.4
2017-04-18T02:46:10.567Z,61.49
2017-04-18T02:46:51.151Z,61.4
2017-04-18T02:47:31.732Z,61.68
2017-04-18T02:48:12.315Z,61.49
2017-04-18T02:48:52.900Z,61.49
2017-04-18T02:49:33.485Z,61.49
2017-04-18T02:50:14.059Z,61.58
2017-04-18T02:50:54.643Z,61.49
2017-04-18T02:51:35.229Z,61.49
2017-04-18T02:52:15.810Z,61.49
2017-04-18T02:52:56.392Z,61.4
2017-04-18T02:53:36.970Z,61.2
2017-04-18T02:54:17.554Z,61.46
2017-04-18T02:54:58.128Z,61.2
2017-04-18T02:55:38.708Z,61.27
2017-04-18T02:56:19.286Z,61.58
2017-04-18T02:56:59.858Z,61.4
2017-04-18T02:57:40.453Z,61.58
2017-04-18T02:58:21.022Z,61.58
2017-04-18T02:59:16.208Z,62.04
2017-04-18T02:59:56.795Z,62.13
2017-04-18T03:00:37.406Z,62.23
2017-04-18T03:01:17.983Z,62.26
2017-04-18T03:01:58.554Z,62.04
2017-04-18T03:02:39.135Z,62.32
2017-04-18T03:03:19.722Z,62.23
2017-04-18T03:04:00.308Z,62.23
2017-04-18T03:04:40.906Z,62.07
2017-04-18T03:05:21.491Z,62.32
2017-04-18T03:06:02.071Z,62.23
2017-04-18T03:06:42.654Z,62.26
2017-04-18T03:07:23.228Z,62.13
2017-04-18T03:08:03.808Z,62.23
2017-04-18T03:08:44.398Z,62.13
2017-04-18T03:09:24.976Z,62.52
2017-04-18T03:10:05.560Z,62.13
2017-04-18T03:10:46.138Z,62.45
2017-04-18T03:11:26.720Z,62.35
2017-04-18T03:12:07.299Z,62.26
2017-04-18T03:12:47.874Z,61.78
2017-04-18T03:13:28.450Z,62.42
2017-04-18T03:14:09.034Z,62.35
2017-04-18T03:16:06.752Z,61.68
2017-04-18T03:16:47.326Z,61.55
2017-04-18T03:17:27.903Z,61.49
2017-04-18T03:18:08.485Z,61.68
2017-04-18T03:18:49.223Z,61.49
2017-04-18T03:19:30.421Z,61.11
2017-04-18T03:20:11.623Z,61.3
2017-04-18T03:20:52.591Z,61.49
2017-04-18T03:21:33.638Z,61.3
2017-04-18T03:22:14.528Z,61.68
2017-04-18T03:22:55.196Z,61.4
2017-04-18T03:23:35.768Z,61.4
2017-04-18T03:24:16.343Z,61.58
2017-04-18T03:24:57.099Z,61.78
2017-04-18T03:25:37.669Z,61.68
2017-04-18T03:26:18.803Z,61.68
2017-04-18T03:26:59.497Z,61.58
2017-04-18T03:27:40.129Z,61.68
2017-04-18T03:28:20.840Z,61.87
2017-04-18T03:29:01.618Z,61.97
2017-04-18T03:29:42.388Z,61.78
2017-04-18T03:30:23.101Z,61.97
2017-04-18T03:31:03.971Z,61.97
2017-04-18T03:31:44.618Z,61.78
2017-04-18T03:32:25.197Z,61.78
2017-04-18T03:33:06.064Z,61.78
2017-04-18T03:33:46.925Z,62.16
2017-04-18T03:34:27.708Z,62.35
2017-04-18T03:35:08.531Z,62.07
2017-04-18T03:35:49.243Z,62.16
2017-04-18T03:36:29.819Z,61.78
2017-04-18T03:37:10.585Z,62.55
2017-04-18T03:37:51.655Z,62.45
2017-04-18T03:38:32.228Z,62.26
2017-04-18T03:39:12.808Z,61.97
2017-04-18T03:39:53.382Z,58.13
2017-04-18T03:40:33.957Z,57.17
2017-04-18T03:41:14.539Z,56.88
2017-04-18T03:43:02.039Z,57.17
2017-04-18T03:43:42.622Z,58.61
2017-04-18T03:44:23.606Z,59.38
2017-04-18T03:45:04.774Z,59.09
2017-04-18T03:45:45.347Z,59.76
2017-04-18T03:46:25.932Z,59.86
2017-04-18T03:47:06.519Z,59.86
2017-04-18T03:47:47.100Z,59.47
2017-04-18T03:52:43.800Z,61.3
2017-04-18T03:53:24.377Z,60.82
2017-04-18T03:54:04.956Z,60.14
2017-04-18T03:54:45.540Z,59.57
2017-04-18T03:55:26.116Z,59.57
2017-04-18T03:56:06.696Z,59.66
2017-04-18T03:56:47.266Z,59.76
2017-04-18T03:57:27.851Z,59.57
2017-04-18T03:58:08.430Z,58.89
2017-04-18T03:58:49.009Z,59.28
2017-04-18T03:59:29.583Z,59.19
2017-04-18T04:00:10.163Z,59.19
2017-04-18T04:00:50.929Z,59.28
2017-04-18T04:01:31.796Z,58.99
2017-04-18T04:02:12.546Z,59.28
2017-04-18T04:02:53.131Z,59.38
2017-04-18T04:03:33.714Z,58.89
2017-04-18T04:04:14.289Z,58.51
2017-04-18T04:04:54.870Z,58.51
2017-04-18T04:05:35.433Z,58.51
2017-04-18T04:06:16.017Z,58.61
2017-04-18T04:07:11.261Z,58.8
2017-04-18T04:07:51.841Z,58.89
2017-04-18T04:08:32.425Z,58.7
2017-04-18T04:09:13.007Z,58.7
2017-04-18T04:09:53.582Z,58.8
2017-04-18T04:10:34.160Z,58.77
2017-04-18T04:11:14.731Z,58.8
2017-04-18T04:11:55.315Z,58.7
2017-04-18T04:12:35.900Z,58.58
2017-04-18T04:13:16.475Z,58.89
2017-04-18T04:13:57.050Z,58.67
2017-04-18T04:14:37.624Z,58.7
2017-04-18T04:15:18.201Z,58.77
2017-04-18T04:15:58.779Z,58.77
2017-04-18T04:16:39.357Z,58.87
2017-04-18T04:17:19.922Z,58.77
2017-04-18T04:18:00.509Z,58.58
2017-04-18T04:18:41.063Z,58.87
2017-04-18T04:19:21.653Z,58.58
2017-04-18T04:20:02.239Z,58.58
2017-04-18T04:20:42.816Z,58.77
2017-04-18T04:21:23.394Z,58.67
2017-04-18T04:22:03.978Z,58.67
2017-04-18T04:22:44.548Z,58.87
2017-04-18T04:23:25.127Z,58.77
2017-04-18T04:24:05.708Z,58.77
2017-04-18T04:24:46.291Z,58.77
2017-04-18T04:25:26.865Z,58.67
2017-04-18T04:26:07.455Z,58.58
2017-04-18T04:26:48.038Z,58.67
2017-04-18T04:27:28.622Z,58.58
2017-04-18T04:28:09.197Z,58.58
2017-04-18T04:28:49.785Z,58.77
2017-04-18T04:29:30.365Z,58.87
2017-04-18T04:30:10.947Z,58.87
2017-04-18T04:32:28.876Z,58.87
2017-04-18T04:33:09.465Z,58.77
2017-04-18T04:33:50.052Z,58.29
2017-04-18T04:34:30.630Z,58.58
2017-04-18T04:35:11.209Z,58.67
2017-04-18T04:35:51.796Z,58.77
2017-04-18T04:36:32.377Z,58.67
2017-04-18T04:37:12.954Z,58.67
2017-04-18T04:37:53.531Z,58.39
2017-04-18T04:38:34.109Z,58.48
2017-04-18T04:39:14.690Z,58.96
2017-04-18T04:39:55.268Z,58.58
2017-04-18T04:40:36.230Z,58.67
2017-04-18T04:41:31.776Z,58.39
2017-04-18T04:42:12.358Z,58.39
2017-04-18T04:42:52.925Z,58.48
2017-04-18T04:43:33.504Z,58.96
2017-04-18T04:44:14.075Z,58.96
2017-04-18T04:44:54.657Z,58.96
2017-04-18T04:45:35.239Z,58.48
2017-04-18T04:46:15.827Z,58.67
2017-04-18T04:46:56.405Z,58.39
2017-04-18T04:49:09.238Z,58.39
2017-04-18T04:49:49.809Z,58.48
2017-04-18T04:50:30.390Z,58.36
2017-04-18T04:51:10.957Z,58.39
2017-04-18T04:51:51.536Z,58.55
2017-04-18T04:52:32.123Z,58.58
2017-04-18T04:53:12.705Z,58.29
2017-04-18T04:53:53.282Z,58.48
2017-04-18T04:54:33.845Z,58.48
2017-04-18T04:55:14.420Z,58.58
2017-04-18T04:55:54.996Z,58.48
2017-04-18T04:56:35.578Z,58.67
2017-04-18T04:57:16.162Z,58.2
2017-04-18T04:57:56.736Z,58.1
2017-04-18T04:58:37.323Z,58.2
2017-04-18T04:59:17.891Z,58.29
2017-04-18T05:01:35.821Z,57.81
2017-04-18T05:02:16.417Z,58.17
2017-04-18T05:02:56.991Z,58.1
2017-04-18T05:03:37.570Z,58.2
2017-04-18T05:04:18.137Z,58
2017-04-18T05:04:58.718Z,57.81
2017-04-18T05:05:39.298Z,57.9
2017-04-18T05:06:19.870Z,57.62
2017-04-18T05:07:00.451Z,57.81
2017-04-18T05:07:41.031Z,58
2017-04-18T05:08:21.611Z,57.81
2017-04-18T05:09:02.188Z,57.52
2017-04-18T05:09:42.770Z,57.71
2017-04-18T05:10:23.345Z,57.62
2017-04-18T05:11:03.925Z,58.2
2017-04-18T05:11:44.506Z,57.62
2017-04-18T05:12:25.092Z,57.71
2017-04-18T05:13:05.673Z,57.81
2017-04-18T05:13:46.251Z,57.81
2017-04-18T05:14:26.822Z,57.62
2017-04-18T05:16:39.650Z,57.23
2017-04-18T05:17:20.230Z,57.33
2017-04-18T05:18:00.801Z,57.23
2017-04-18T05:18:41.385Z,57.14
2017-04-18T05:19:21.970Z,57.43
2017-04-18T05:20:02.543Z,57.52
2017-04-18T05:20:43.128Z,57.23
2017-04-18T05:21:23.703Z,56.95
2017-04-18T05:22:04.288Z,57.23
2017-04-18T05:22:44.870Z,57.23
2017-04-18T05:23:25.451Z,57.23
2017-04-18T05:24:06.032Z,57.04
2017-04-18T05:24:46.612Z,57.33
2017-04-18T05:25:27.185Z,57.23
2017-04-18T05:26:07.770Z,57.14
2017-04-18T05:26:48.352Z,57.33
2017-04-18T05:27:28.935Z,57.14
2017-04-18T05:28:09.501Z,57.23
2017-04-18T05:28:50.084Z,57.04
2017-04-18T05:29:30.670Z,57.23
2017-04-18T05:30:11.264Z,57.33
2017-04-18T05:30:51.823Z,57.23
2017-04-18T05:31:32.402Z,57.14
2017-04-18T05:32:12.988Z,57.33
2017-04-18T05:32:53.571Z,57.23
2017-04-18T05:33:34.157Z,57.23
2017-04-18T05:34:14.737Z,57.23
2017-04-18T05:34:55.310Z,57.23
2017-04-18T05:35:35.895Z,56.95
2017-04-18T05:36:16.475Z,56.95
2017-04-18T05:36:57.053Z,57.23
2017-04-18T05:37:37.630Z,57.14
2017-04-18T05:38:18.219Z,56.85
2017-04-18T05:38:58.808Z,56.95
2017-04-18T05:39:39.385Z,56.66
2017-04-18T05:40:19.969Z,56.95
2017-04-18T05:42:37.911Z,56.95
2017-04-18T05:43:18.491Z,56.66
2017-04-18T05:43:59.076Z,56.76
2017-04-18T05:44:39.658Z,56.95
2017-04-18T05:45:20.220Z,56.95
2017-04-18T05:46:00.805Z,56.85
2017-04-18T05:46:41.379Z,56.76
2017-04-18T05:47:21.955Z,56.76
2017-04-18T05:48:02.539Z,56.95
2017-04-18T05:49:50.048Z,57.14
2017-04-18T05:50:30.622Z,56.37
2017-04-18T05:51:11.205Z,56.37
2017-04-18T05:51:51.801Z,56.37
2017-04-18T05:54:09.717Z,55.79
2017-04-18T05:54:50.296Z,56.08
2017-04-18T05:55:30.874Z,56.18
2017-04-18T05:56:11.451Z,55.99
2017-04-18T05:56:52.035Z,56.27
2017-04-18T05:57:32.612Z,56.18
2017-04-18T05:58:13.194Z,55.89
2017-04-18T05:58:53.771Z,55.89
2017-04-18T05:59:34.348Z,55.79
2017-04-18T06:00:14.932Z,55.82
2017-04-18T06:00:55.504Z,55.63
2017-04-18T06:01:36.087Z,55.63
2017-04-18T06:02:16.666Z,55.24
2017-04-18T06:02:57.244Z,55.44
2017-04-18T06:03:37.829Z,55.24
2017-04-18T06:04:18.405Z,55.24
2017-04-18T06:04:58.983Z,55.24
2017-04-18T06:05:39.562Z,55.34
2017-04-18T06:06:20.150Z,55.05
2017-04-18T06:07:00.715Z,54.67
2017-04-18T06:07:41.305Z,54.96
2017-04-18T06:08:21.892Z,54.86
2017-04-18T06:09:02.475Z,55.05
2017-04-18T06:09:43.061Z,54.96
2017-04-18T06:10:23.637Z,54.57
2017-04-18T06:11:04.215Z,54.67
2017-04-18T06:11:44.791Z,54.57
2017-04-18T06:12:25.374Z,54.67
2017-04-18T06:13:05.954Z,54.57
2017-04-18T06:13:46.544Z,54.38
2017-04-18T06:14:27.116Z,53.9
2017-04-18T06:15:07.699Z,54.19
2017-04-18T06:15:48.281Z,53.54
2017-04-18T06:16:28.859Z,53.83
2017-04-18T06:18:41.693Z,52.42
2017-04-18T06:19:36.865Z,51.57
2017-04-18T06:20:17.443Z,49.51
2017-04-18T06:20:58.013Z,47.53
2017-04-18T06:21:38.601Z,44.7
2017-04-18T06:22:19.186Z,42.52
2017-04-18T06:22:59.771Z,41.85
2017-04-18T06:23:40.344Z,40.44
2017-04-18T06:24:20.910Z,38.91
2017-04-18T06:25:01.496Z,38.43
2017-04-18T06:25:42.071Z,38.41
2017-04-18T06:26:22.651Z,38.7
2017-04-18T06:27:03.229Z,38.31
2017-04-18T06:27:43.809Z,38.7
2017-04-18T06:28:24.385Z,38.31
2017-04-18T06:29:04.961Z,38.7
2017-04-18T06:29:45.546Z,37.01
2017-04-18T06:30:26.116Z,35.96
2017-04-18T06:31:06.698Z,36.14
2017-04-18T06:31:47.289Z,36.33
2017-04-18T06:32:27.851Z,36.33
2017-04-18T06:33:08.429Z,36.22
2017-04-18T06:33:49.014Z,36.51
2017-04-18T06:36:08.452Z,36.88
2017-04-18T06:36:49.032Z,37.07
2017-04-18T06:37:29.607Z,37.34
2017-04-18T06:38:10.193Z,37.73
2017-04-18T06:38:50.785Z,37.82
2017-04-18T06:39:31.363Z,37.81
2017-04-18T06:41:23.971Z,38.48
2017-04-18T06:42:04.544Z,38.29
2017-04-18T06:42:45.128Z,38.95
2017-04-18T06:43:25.707Z,38.85
2017-04-18T06:44:06.289Z,38.66
2017-04-18T06:44:46.877Z,39.24
2017-04-18T06:45:27.451Z,39.82
2017-04-18T06:46:08.320Z,39.82
2017-04-18T06:46:48.910Z,39.82
2017-04-18T06:47:29.491Z,39.53
2017-04-18T06:48:10.062Z,38.97
2017-04-18T06:48:50.644Z,37.63
2017-04-18T06:49:31.227Z,36.62
2017-04-18T06:50:11.807Z,35.11
2017-04-18T06:50:52.381Z,33.39
2017-04-18T06:51:32.963Z,31.4
2017-04-18T06:52:13.540Z,29.78
2017-04-18T06:52:54.127Z,28.44
2017-04-18T06:53:34.712Z,27.3
2017-04-18T06:54:15.295Z,25.86
2017-04-18T06:54:55.869Z,24.53
2017-04-18T06:55:36.451Z,23.36
2017-04-18T06:56:17.036Z,23.85
2017-04-18T06:56:57.620Z,23.54
2017-04-18T06:57:38.202Z,23.65
2017-04-18T06:58:18.786Z,23.44
2017-04-18T06:58:59.371Z,23.54
2017-04-18T06:59:39.947Z,24.22
2017-04-18T07:00:20.537Z,24.21
2017-04-18T07:01:01.128Z,24.78
2017-04-18T07:01:41.699Z,25.54
2017-04-18T07:02:22.285Z,26.41
2017-04-18T07:03:02.865Z,26.79
2017-04-18T07:03:43.459Z,27.06
2017-04-18T07:04:24.039Z,27.34
2017-04-18T07:05:04.626Z,28.11
2017-04-18T07:05:45.208Z,28.88
2017-04-18T07:06:25.792Z,29.44
2017-04-18T07:07:06.374Z,29.72
2017-04-18T07:07:46.958Z,30.4
2017-04-18T07:08:27.535Z,30.97
2017-04-18T07:09:08.123Z,31.53
2017-04-18T07:09:48.706Z,32
2017-04-18T07:10:29.277Z,32.59
2017-04-18T07:11:09.862Z,32.96
2017-04-18T07:11:50.453Z,33.34
2017-04-18T07:13:43.056Z,33.91
2017-04-18T07:14:23.643Z,34.59
2017-04-18T07:15:04.228Z,34.39
2017-04-18T07:15:44.812Z,34.57
2017-04-18T07:16:25.391Z,35.15
2017-04-18T07:17:05.964Z,34.96
2017-04-18T07:17:46.547Z,35.25
2017-04-18T07:18:27.130Z,35.15
2017-04-18T07:19:07.710Z,34.77
2017-04-18T07:19:48.290Z,34.78
2017-04-18T07:20:28.864Z,34.67
2017-04-18T07:21:09.441Z,35.25
2017-04-18T07:21:50.016Z,34.67
2017-04-18T07:22:30.591Z,35.35
2017-04-18T07:23:11.176Z,35.35
2017-04-18T07:23:51.759Z,35.64
2017-04-18T07:24:32.342Z,35.52
2017-04-18T07:25:12.916Z,35.91
2017-04-18T07:25:53.499Z,35.91
2017-04-18T07:26:34.075Z,35.99
2017-04-18T07:27:14.660Z,36.47
2017-04-18T07:27:55.242Z,36.65
2017-04-18T07:28:35.830Z,37.13
2017-04-18T07:29:16.411Z,37.42
2017-04-18T07:29:56.995Z,37.7
2017-04-18T07:30:37.598Z,37.88
2017-04-18T07:31:18.149Z,38.06
2017-04-18T07:31:58.729Z,38.45
2017-04-18T07:32:39.320Z,38.93
2017-04-18T07:33:19.937Z,39.49
2017-04-18T07:34:00.488Z,39.69
2017-04-18T07:34:41.063Z,39.69
2017-04-18T07:35:21.638Z,40.26
2017-04-18T07:36:02.232Z,40.44
2017-04-18T07:36:42.799Z,41.02
2017-04-18T07:37:23.381Z,41.11
2017-04-18T07:38:03.960Z,41.2
2017-04-18T07:38:44.543Z,41.57
2017-04-18T07:39:25.123Z,41.77
2017-04-18T07:40:05.700Z,41.67
2017-04-18T07:40:46.283Z,41.96
2017-04-18T07:41:26.871Z,42.25
2017-04-18T07:42:07.451Z,42.35
2017-04-18T07:42:48.035Z,42.8
2017-04-18T07:43:28.616Z,42.71
2017-04-18T07:44:09.201Z,43.29
2017-04-18T07:44:49.782Z,42.8
2017-04-18T07:45:30.363Z,42.71
2017-04-18T07:46:10.943Z,43.19
2017-04-18T07:46:51.533Z,44.06
2017-04-18T07:47:32.119Z,43.67
2017-04-18T07:48:12.697Z,43.65
2017-04-18T07:48:53.286Z,43.58
2017-04-18T07:49:33.872Z,43.77
2017-04-18T07:50:14.457Z,43.85
2017-04-18T07:50:55.035Z,43.85
2017-04-18T07:51:35.617Z,43.77
2017-04-18T07:52:16.197Z,43.96
2017-04-18T07:52:56.766Z,43.77
2017-04-18T07:53:37.345Z,43.77
2017-04-18T07:54:17.932Z,43.58
2017-04-18T07:54:58.512Z,43.67
2017-04-18T07:55:39.089Z,43.77
2017-04-18T07:56:19.664Z,43.67
2017-04-18T07:57:00.249Z,43.94
2017-04-18T07:57:40.833Z,43.94
2017-04-18T07:58:21.411Z,43.85
2017-04-18T07:59:01.995Z,44.23
2017-04-18T07:59:42.581Z,43.94
2017-04-18T08:00:23.161Z,44.23
2017-04-18T08:01:03.741Z,44.23
2017-04-18T08:01:44.326Z,44.52
2017-04-18T08:02:24.910Z,44.04
2017-04-18T08:03:05.498Z,44.04
2017-04-18T08:03:46.075Z,43.94
2017-04-18T08:05:58.694Z,44.81
2017-04-18T08:06:39.272Z,44.62
2017-04-18T08:07:19.864Z,44.23
2017-04-18T08:08:00.445Z,44.52
2017-04-18T08:08:41.034Z,44.32
2017-04-18T08:09:21.606Z,44.81
2017-04-18T08:10:02.180Z,44.9
2017-04-18T08:10:42.766Z,44.9
2017-04-18T08:11:23.346Z,44.71
2017-04-18T08:12:03.920Z,44.81
2017-04-18T08:12:44.496Z,44.9
2017-04-18T08:13:25.079Z,44.71
2017-04-18T08:14:05.656Z,44.98
2017-04-18T08:14:46.237Z,44.79
2017-04-18T08:15:26.824Z,44.98
2017-04-18T08:16:07.396Z,44.89
2017-04-18T08:16:47.979Z,45.36
2017-04-18T08:17:28.565Z,45.36
2017-04-18T08:18:09.153Z,45.65
2017-04-18T08:18:49.736Z,45.36
2017-04-18T08:19:30.319Z,45.46
2017-04-18T08:20:10.900Z,45.65
2017-04-18T08:20:51.477Z,45.56
2017-04-18T08:21:32.051Z,45.65
2017-04-18T08:22:12.627Z,46.04
2017-04-18T08:22:53.209Z,45.84
2017-04-18T08:23:33.788Z,46.23
2017-04-18T08:24:14.373Z,46.14
2017-04-18T08:24:54.960Z,46.52
2017-04-18T08:25:35.537Z,46.33
2017-04-18T08:26:16.112Z,46.23
2017-04-18T08:26:56.696Z,46.14
2017-04-18T08:27:37.269Z,46.4
2017-04-18T08:28:17.838Z,46.4
2017-04-18T08:28:58.418Z,46.59
2017-04-18T08:29:38.998Z,46.59
2017-04-18T08:30:19.571Z,46.59
2017-04-18T08:31:00.155Z,46.5
2017-04-18T08:31:40.738Z,46.59
2017-04-18T08:32:21.319Z,46.78
2017-04-18T08:33:01.898Z,46.98
2017-04-18T08:33:42.474Z,46.88
2017-04-18T08:34:23.050Z,46.69
2017-04-18T08:35:03.626Z,46.69
2017-04-18T08:35:44.207Z,47.17
2017-04-18T08:36:24.791Z,47.27
2017-04-18T08:37:05.384Z,47.27
2017-04-18T08:37:45.959Z,47.08
2017-04-18T08:38:26.546Z,47.17
2017-04-18T08:39:07.126Z,47.27
2017-04-18T08:39:47.711Z,47.27
2017-04-18T08:40:28.292Z,47.17
2017-04-18T08:41:08.872Z,47.27
2017-04-18T08:41:49.454Z,47.36
2017-04-18T08:42:30.026Z,47.27
2017-04-18T08:43:10.617Z,47.17
2017-04-18T08:43:51.194Z,46.98
2017-04-18T08:44:31.779Z,47.17
2017-04-18T08:45:12.355Z,47.17
2017-04-18T08:45:52.937Z,46.98
2017-04-18T08:46:33.505Z,46.78
2017-04-18T08:47:14.096Z,46.69
2017-04-18T08:47:54.678Z,46.31
2017-04-18T08:48:35.269Z,46.33
2017-04-18T08:49:15.851Z,46.14
2017-04-18T08:49:56.412Z,46.23
2017-04-18T08:50:37.005Z,46.04
2017-04-18T08:51:17.585Z,46.04
2017-04-18T08:51:58.167Z,45.65
2017-04-18T08:52:38.747Z,45.75
2017-04-18T08:53:19.331Z,45.65
2017-04-18T08:53:59.903Z,45.27
2017-04-18T08:54:40.499Z,45.75
2017-04-18T08:55:21.078Z,44.98
2017-04-18T08:56:01.657Z,45.48
2017-04-18T08:56:42.242Z,45.07
2017-04-18T08:57:22.821Z,45.07
2017-04-18T08:58:03.402Z,45.07
2017-04-18T08:58:43.988Z,45.1
2017-04-18T08:59:24.566Z,44.98
2017-04-18T09:00:05.145Z,44.9
2017-04-18T09:00:45.730Z,44.69
2017-04-18T09:01:26.323Z,45.07
2017-04-18T09:02:06.899Z,44.98
2017-04-18T09:02:47.477Z,44.9
2017-04-18T09:03:28.061Z,44.89
2017-04-18T09:04:08.639Z,45
2017-04-18T09:04:49.224Z,44.9
2017-04-18T09:05:29.812Z,45.07
2017-04-18T09:06:10.401Z,44.89
2017-04-18T09:06:50.983Z,44.69
2017-04-18T09:07:31.567Z,44.89
2017-04-18T09:08:12.141Z,45
2017-04-18T09:08:52.724Z,44.9
2017-04-18T09:09:33.313Z,44.9
2017-04-18T09:10:13.884Z,44.69
2017-04-18T09:10:54.461Z,44.81
2017-04-18T09:11:35.044Z,44.69
2017-04-18T09:14:08.145Z,45.07
2017-04-18T09:14:48.729Z,45.07
2017-04-18T09:15:29.312Z,44.98
2017-04-18T09:16:09.900Z,45.27
2017-04-18T09:16:50.476Z,45.65
2017-04-18T09:17:31.060Z,45.65
2017-04-18T09:18:11.640Z,45.75